Time;durP1;ratioP1;P1;durP2;ratioP2;P2;SDS_P1;SDS_P2;PMS_P1;PMS_P2;Temp;Humidity;BMP_temperature;BMP_pressure;BME280_temperature;BME280_humidity;BME280_pressure;Samples;Min_cycle;Max_cycle;Signal;HPM_P1;HPM_P2
2022/08/16 00:03:27;;;;;;;4.15;2.72;;;31.30;49.60;;;;;;10403171;28;20123;-33
2022/08/16 00:08:29;;;;;;;3.80;3.03;;;31.40;49.60;;;;;;10408762;28;20053;-34
2022/08/16 00:13:33;;;;;;;5.57;3.05;;;31.30;49.50;;;;;;10402239;28;20133;-36
2022/08/16 00:18:36;;;;;;;2.67;2.28;;;31.30;49.60;;;;;;10405305;28;20067;-35
2022/08/16 00:23:37;;;;;;;4.97;2.42;;;31.30;49.60;;;;;;10405515;28;20060;-34
2022/08/16 00:28:41;;;;;;;6.53;2.92;;;31.20;49.50;;;;;;10399884;28;20046;-35
2022/08/16 00:33:43;;;;;;;6.28;4.20;;;31.20;49.60;;;;;;10398269;28;20497;-34
2022/08/16 00:38:44;;;;;;;3.33;2.88;;;31.10;49.80;;;;;;10396995;28;20516;-36
2022/08/16 00:43:48;;;;;;;9.10;3.03;;;31.10;49.80;;;;;;10400325;28;20054;-35
2022/08/16 00:48:51;;;;;;;6.30;3.13;;;31.10;49.80;;;;;;10407167;28;20172;-36
2022/08/16 00:53:54;;;;;;;12.75;3.22;;;31.10;49.90;;;;;;10405245;28;20548;-35
2022/08/16 00:59:00;;;;;;;3.83;2.78;;;31.10;50.00;;;;;;10406433;28;20045;-35
2022/08/16 01:04:03;;;;;;;3.47;2.90;;;31.00;50.00;;;;;;10401977;28;20081;-35
2022/08/16 01:09:07;;;;;;;3.90;3.00;;;31.00;50.10;;;;;;10394192;28;20049;-33
2022/08/16 01:14:16;;;;;;;5.50;3.15;;;31.00;50.20;;;;;;10394171;28;20318;-34
2022/08/16 01:19:24;;;;;;;4.25;3.05;;;30.90;50.20;;;;;;10401139;28;20430;-35
2022/08/16 01:24:31;;;;;;;4.07;3.42;;;30.90;50.30;;;;;;10402378;28;20061;-34
2022/08/16 01:29:37;;;;;;;4.38;3.30;;;30.90;50.40;;;;;;10406336;28;20068;-34
2022/08/16 01:34:39;;;;;;;5.63;3.45;;;30.90;50.40;;;;;;10397008;28;20496;-34
2022/08/16 01:39:43;;;;;;;5.30;3.20;;;30.80;50.40;;;;;;10397228;28;20096;-36
2022/08/16 01:44:45;;;;;;;4.95;2.92;;;30.80;50.40;;;;;;10403123;28;20057;-35
2022/08/16 01:49:46;;;;;;;3.75;3.10;;;30.80;50.50;;;;;;10404525;28;20132;-35
2022/08/16 01:54:50;;;;;;;6.13;3.40;;;30.80;50.50;;;;;;10405198;28;20517;-35
2022/08/16 01:59:52;;;;;;;4.88;3.40;;;30.80;51.10;;;;;;10389020;28;20081;-35
2022/08/16 02:04:54;;;;;;;9.05;3.42;;;30.70;50.60;;;;;;10397375;28;20172;-35
2022/08/16 02:09:57;;;;;;;6.45;3.55;;;30.70;50.70;;;;;;10404089;28;20053;-35
2022/08/16 02:15:00;;;;;;;4.05;3.20;;;30.60;50.60;;;;;;10401547;28;20052;-33
2022/08/16 02:20:02;;;;;;;3.28;2.97;;;30.60;50.60;;;;;;10396247;28;20049;-34
2022/08/16 02:25:09;;;;;;;3.30;3.00;;;30.60;50.60;;;;;;10403504;28;20053;-34
2022/08/16 02:30:16;;;;;;;4.72;3.15;;;30.60;50.50;;;;;;10405780;28;20037;-35
2022/08/16 02:35:18;;;;;;;5.13;3.17;;;30.60;50.50;;;;;;10387351;28;20119;-33
2022/08/16 02:40:24;;;;;;;3.78;3.05;;;30.60;50.60;;;;;;10400679;28;20046;-34
2022/08/16 02:45:27;;;;;;;4.88;3.03;;;30.50;50.50;;;;;;10395057;28;20050;-36
2022/08/16 02:50:29;;;;;;;3.25;2.85;;;30.50;51.20;;;;;;10404845;28;20053;-35
2022/08/16 02:55:32;;;;;;;3.30;3.00;;;30.40;50.60;;;;;;10405941;28;20466;-35
2022/08/16 03:00:35;;;;;;;3.78;2.80;;;30.40;50.60;;;;;;10405739;28;20080;-35
2022/08/16 03:05:37;;;;;;;3.17;2.88;;;30.40;50.60;;;;;;10405436;28;20091;-35
2022/08/16 03:10:40;;;;;;;4.40;3.20;;;30.40;50.70;;;;;;10403162;28;20065;-35
2022/08/16 03:15:42;;;;;;;4.78;4.07;;;30.30;50.80;;;;;;10395378;28;20089;-29
2022/08/16 03:20:43;;;;;;;5.72;2.80;;;30.30;50.70;;;;;;10390010;28;20128;-36
2022/08/16 03:25:47;;;;;;;3.47;2.88;;;30.20;50.80;;;;;;10396632;28;20065;-34
2022/08/16 03:30:48;;;;;;;4.07;2.53;;;30.20;50.80;;;;;;10398572;28;20069;-35
2022/08/16 03:35:51;;;;;;;3.10;2.80;;;30.20;50.70;;;;;;10396872;28;20442;-36
2022/08/16 03:40:55;;;;;;;3.08;2.78;;;30.20;50.80;;;;;;10401575;28;20065;-35
2022/08/16 03:45:58;;;;;;;4.90;3.15;;;30.20;50.80;;;;;;10409879;28;20490;-35
2022/08/16 03:51:00;;;;;;;3.88;3.00;;;30.20;50.80;;;;;;10407146;28;20053;-35
2022/08/16 03:56:06;;;;;;;3.33;3.03;;;30.10;50.90;;;;;;10407128;28;20087;-36
2022/08/16 04:01:08;;;;;;;2.97;2.75;;;30.10;50.90;;;;;;10407774;28;20060;-35
2022/08/16 04:06:10;;;;;;;3.20;2.70;;;30.00;51.00;;;;;;10411055;28;20040;-35
2022/08/16 04:11:13;;;;;;;5.03;3.45;;;30.00;50.90;;;;;;10409196;28;20592;-34
2022/08/16 04:16:16;;;;;;;4.93;2.80;;;30.00;50.90;;;;;;10411174;28;20076;-36
2022/08/16 04:21:18;;;;;;;5.20;3.20;;;30.00;51.10;;;;;;10400607;28;20467;-34
2022/08/16 04:26:21;;;;;;;4.32;3.60;;;29.90;51.20;;;;;;10398979;28;20089;-34
2022/08/16 04:31:23;;;;;;;3.53;3.20;;;29.90;51.30;;;;;;10382026;28;20069;-34
2022/08/16 04:36:26;;;;;;;5.35;3.47;;;30.00;51.90;;;;;;10385547;28;20051;-34
2022/08/16 04:41:30;;;;;;;9.68;4.30;;;30.00;51.50;;;;;;10381605;28;20515;-34
2022/08/16 04:46:32;;;;;;;4.15;3.67;;;29.90;51.40;;;;;;10385397;28;20089;-34
2022/08/16 04:51:34;;;;;;;4.57;4.05;;;29.90;51.40;;;;;;10385140;28;20096;-36
2022/08/16 04:56:38;;;;;;;6.45;4.13;;;29.90;51.40;;;;;;10400715;28;20041;-34
2022/08/16 05:01:39;;;;;;;5.35;3.97;;;29.90;51.60;;;;;;10376779;28;20045;-34
2022/08/16 05:06:42;;;;;;;7.22;4.25;;;29.80;51.50;;;;;;10377375;28;20045;-35
2022/08/16 05:11:46;;;;;;;6.28;4.55;;;29.90;51.40;;;;;;10387568;28;20054;-35
2022/08/16 05:16:48;;;;;;;6.63;4.32;;;29.90;51.50;;;;;;10393142;28;20100;-34
2022/08/16 05:21:50;;;;;;;8.38;4.55;;;29.80;51.50;;;;;;10386433;28;20050;-34
2022/08/16 05:26:53;;;;;;;9.05;4.57;;;29.80;51.60;;;;;;10387322;28;20092;-35
2022/08/16 05:31:55;;;;;;;10.77;4.15;;;29.80;51.50;;;;;;10402169;28;20148;-35
2022/08/16 05:36:57;;;;;;;8.65;4.68;;;29.90;51.70;;;;;;10383483;28;20149;-35
2022/08/16 05:42:00;;;;;;;7.78;4.80;;;29.80;51.50;;;;;;10400726;28;20069;-35
2022/08/16 05:47:03;;;;;;;10.93;4.82;;;29.90;51.70;;;;;;10389275;28;20065;-35
2022/08/16 05:52:04;;;;;;;6.28;4.75;;;29.90;51.60;;;;;;10399178;28;20037;-34
2022/08/16 05:57:08;;;;;;;7.75;4.25;;;29.80;51.70;;;;;;10396826;28;20050;-33
2022/08/16 06:02:10;;;;;;;8.02;4.78;;;29.90;51.80;;;;;;10382332;28;20057;-35
2022/08/16 06:07:12;;;;;;;6.75;4.75;;;29.80;51.80;;;;;;10394726;28;20112;-36
2022/08/16 06:12:17;;;;;;;10.55;6.45;;;29.90;51.90;;;;;;10408280;28;20103;-35
2022/08/16 06:17:18;;;;;;;11.50;5.10;;;29.80;52.10;;;;;;10402671;28;20096;-34
2022/08/16 06:22:20;;;;;;;7.13;5.13;;;29.90;52.10;;;;;;10399566;28;20144;-35
2022/08/16 06:27:23;;;;;;;9.02;5.40;;;29.70;52.60;;;;;;10400296;28;20065;-35
2022/08/16 06:32:25;;;;;;;6.00;4.68;;;29.80;52.30;;;;;;10390088;28;20096;-33
2022/08/16 06:37:27;;;;;;;14.10;8.55;;;29.80;52.40;;;;;;10392976;28;20494;-34
2022/08/16 06:42:30;;;;;;;16.67;9.95;;;29.30;53.60;;;;;;10391985;28;20564;-30
2022/08/16 06:47:32;;;;;;;9.27;4.82;;;29.30;53.70;;;;;;10391980;28;20045;-35
2022/08/16 06:52:35;;;;;;;9.85;5.38;;;29.80;53.00;;;;;;10397478;28;20065;-35
2022/08/16 06:57:38;;;;;;;14.13;9.07;;;29.80;52.90;;;;;;10396926;28;20574;-35
2022/08/16 07:02:41;;;;;;;6.63;4.88;;;29.20;53.80;;;;;;10398347;28;20054;-36
2022/08/16 07:07:44;;;;;;;12.27;5.88;;;29.60;53.10;;;;;;10415651;28;20045;-35
2022/08/16 07:12:49;;;;;;;7.28;5.30;;;29.30;54.00;;;;;;10404850;28;20103;-36
2022/08/16 07:17:52;;;;;;;8.07;5.60;;;29.40;53.90;;;;;;10394306;28;20398;-33
2022/08/16 07:22:54;;;;;;;7.35;4.35;;;29.50;53.60;;;;;;10402459;28;20041;-35
2022/08/16 07:27:58;;;;;;;7.90;4.30;;;29.40;54.00;;;;;;10411240;28;20055;-35
2022/08/16 07:33:01;;;;;;;24.70;11.70;;;29.70;53.40;;;;;;10405559;28;20120;-35
2022/08/16 07:38:03;;;;;;;15.90;9.25;;;29.30;54.20;;;;;;10402580;28;20045;-35
2022/08/16 07:43:06;;;;;;;9.82;5.07;;;29.00;55.40;;;;;;10392766;28;20041;-35
2022/08/16 07:48:08;;;;;;;5.78;3.50;;;29.50;54.30;;;;;;10404689;28;20075;-34
2022/08/16 07:53:10;;;;;;;6.18;3.95;;;29.70;53.70;;;;;;10404236;28;20072;-34
2022/08/16 07:58:13;;;;;;;6.43;3.83;;;29.70;53.40;;;;;;10407326;28;20496;-34
2022/08/16 08:03:15;;;;;;;7.00;4.53;;;29.80;53.40;;;;;;10403238;28;20087;-34
2022/08/16 08:08:17;;;;;;;6.28;3.63;;;29.90;53.10;;;;;;10407432;28;20049;-34
2022/08/16 08:13:20;;;;;;;15.23;6.60;;;29.90;52.90;;;;;;10397395;28;20076;-34
2022/08/16 08:18:22;;;;;;;9.75;6.03;;;29.80;54.10;;;;;;10402103;28;20059;-35
2022/08/16 08:23:24;;;;;;;4.63;3.70;;;29.40;54.00;;;;;;10403996;28;20125;-36
2022/08/16 08:28:30;;;;;;;13.50;7.70;;;29.90;52.80;;;;;;10399435;28;20049;-35
2022/08/16 08:33:33;;;;;;;11.98;9.05;;;29.00;54.40;;;;;;10393496;28;20379;-35
2022/08/16 08:38:35;;;;;;;19.65;11.88;;;29.00;55.40;;;;;;10399763;28;20131;-32
2022/08/16 08:43:38;;;;;;;7.70;5.32;;;29.50;54.90;;;;;;10407599;28;20085;-34
2022/08/16 08:48:40;;;;;;;13.32;6.53;;;29.10;54.40;;;;;;10406949;28;20041;-34
2022/08/16 08:53:42;;;;;;;11.75;6.40;;;28.30;57.50;;;;;;10399994;28;20108;-33
2022/08/16 08:58:45;;;;;;;11.73;5.90;;;27.90;57.20;;;;;;10399722;28;20053;-34
2022/08/16 09:03:47;;;;;;;8.10;5.03;;;28.50;57.60;;;;;;10405923;28;20136;-35
2022/08/16 09:08:49;;;;;;;8.85;5.30;;;28.10;58.20;;;;;;10407334;28;20071;-34
2022/08/16 09:13:52;;;;;;;19.42;7.97;;;28.20;56.10;;;;;;10406317;28;20037;-34
2022/08/16 09:18:54;;;;;;;5.40;4.32;;;28.40;58.00;;;;;;10390880;28;20046;-34
2022/08/16 09:23:56;;;;;;;10.23;6.00;;;28.70;55.20;;;;;;10394650;28;20041;-33
2022/08/16 09:28:59;;;;;;;11.45;8.15;;;28.30;57.70;;;;;;10386847;28;20050;-35
2022/08/16 09:34:01;;;;;;;11.10;7.63;;;28.40;57.20;;;;;;10401512;28;20053;-34
2022/08/16 09:39:04;;;;;;;11.18;6.05;;;28.70;55.20;;;;;;10406591;28;20489;-35
2022/08/16 09:44:15;;;;;;;13.20;7.60;;;29.30;53.80;;;;;;10486661;28;20763;-34
2022/08/16 09:49:18;;;;;;;10.23;7.07;;;28.60;55.30;;;;;;10486837;28;20127;-33
2022/08/16 09:54:20;;;;;;;8.63;5.63;;;28.70;54.90;;;;;;10486462;28;20048;-35
2022/08/16 09:59:25;;;;;;;8.65;6.70;;;29.30;53.80;;;;;;10474062;28;20519;-34
2022/08/16 10:04:27;;;;;;;7.22;4.55;;;29.10;54.40;;;;;;10477864;28;20049;-35
2022/08/16 10:09:29;;;;;;;5.63;4.20;;;28.60;55.30;;;;;;10489632;28;20133;-36
2022/08/16 10:14:33;;;;;;;19.95;10.60;;;29.30;53.50;;;;;;10474522;28;20045;-36
2022/08/16 10:19:34;;;;;;;14.70;6.45;;;28.70;55.50;;;;;;10472360;28;20139;-32
2022/08/16 10:24:36;;;;;;;7.00;4.40;;;28.70;55.70;;;;;;10467711;28;20481;-33
2022/08/16 10:29:40;;;;;;;6.45;3.72;;;27.80;57.30;;;;;;10488201;28;20079;-35
2022/08/16 10:34:41;;;;;;;12.73;6.55;;;28.60;55.10;;;;;;10469945;28;20476;-34
2022/08/16 10:39:43;;;;;;;7.03;4.32;;;27.70;57.50;;;;;;10469064;28;20378;-34
2022/08/16 10:44:47;;;;;;;14.27;8.27;;;27.50;58.60;;;;;;10471479;28;20120;-34
2022/08/16 10:49:49;;;;;;;11.32;5.05;;;28.20;56.60;;;;;;10475922;28;20048;-34
2022/08/16 10:54:51;;;;;;;19.23;8.45;;;28.30;56.20;;;;;;10447765;28;20053;-34
2022/08/16 10:59:54;;;;;;;11.20;6.72;;;28.20;56.80;;;;;;10454336;28;20516;-34
2022/08/16 11:04:56;;;;;;;11.60;7.43;;;29.00;55.10;;;;;;10430859;28;20072;-34
2022/08/16 11:10:00;;;;;;;11.27;7.18;;;29.30;54.60;;;;;;10449806;28;20134;-35
2022/08/16 11:15:05;;;;;;;8.45;3.90;;;28.90;56.80;;;;;;10435888;28;20084;-33
2022/08/16 11:20:12;;;;;;;8.38;5.72;;;29.30;54.20;;;;;;10437296;28;20057;-33
2022/08/16 11:25:16;;;;;;;13.95;7.00;;;29.50;53.50;;;;;;10448065;28;20490;-34
2022/08/16 11:30:19;;;;;;;16.83;7.63;;;29.50;54.30;;;;;;10450306;28;20132;-34
2022/08/16 11:35:24;;;;;;;10.52;7.10;;;29.40;57.00;;;;;;10436481;28;20127;-33
2022/08/16 11:40:30;;;;;;;9.02;5.50;;;29.30;54.20;;;;;;10427229;28;20053;-34
2022/08/16 11:45:34;;;;;;;8.90;5.28;;;29.60;54.90;;;;;;10437686;28;20101;-34
2022/08/16 11:50:36;;;;;;;7.18;5.45;;;29.40;54.10;;;;;;10436951;28;20200;-34
2022/08/16 11:55:39;;;;;;;13.77;6.78;;;29.20;54.50;;;;;;10425262;28;20076;-36
2022/08/16 12:00:46;;;;;;;19.88;10.07;;;29.50;53.90;;;;;;10429883;28;20143;-33
2022/08/16 12:05:48;;;;;;;25.88;12.45;;;28.30;59.10;;;;;;10450087;28;20046;-36
2022/08/16 12:10:50;;;;;;;26.83;14.45;;;26.80;63.70;;;;;;10450747;28;20052;-36
2022/08/16 12:15:54;;;;;;;18.83;14.20;;;27.40;61.80;;;;;;10447759;28;20049;-35
2022/08/16 12:20:56;;;;;;;16.52;10.77;;;26.90;63.40;;;;;;10444657;28;20552;-34
2022/08/16 12:25:58;;;;;;;30.92;15.07;;;26.30;65.40;;;;;;10457646;28;20131;-36
2022/08/16 12:31:01;;;;;;;26.35;14.38;;;26.00;66.40;;;;;;10434828;28;20041;-36
2022/08/16 12:36:03;;;;;;;25.65;13.40;;;26.90;64.00;;;;;;10432054;28;20087;-34
2022/08/16 12:41:05;;;;;;;27.05;14.95;;;27.60;62.00;;;;;;10438662;28;20385;-41
2022/08/16 12:46:10;;;;;;;19.92;12.13;;;27.20;63.50;;;;;;10445535;28;20506;-42
2022/08/16 12:51:14;;;;;;;16.95;11.15;;;27.90;61.70;;;;;;10436064;28;20530;-40
2022/08/16 12:56:16;;;;;;;25.00;11.43;;;27.90;61.30;;;;;;10449999;28;20049;-39
2022/08/16 13:01:20;;;;;;;17.73;7.15;;;28.20;61.10;;;;;;10445612;28;20125;-37
2022/08/16 13:06:23;;;;;;;15.65;9.15;;;28.70;59.70;;;;;;10446277;28;20048;-36
2022/08/16 13:11:35;;;;;;;10.07;5.13;;;28.50;59.50;;;;;;10440578;28;20162;-37
2022/08/16 13:16:38;;;;;;;16.10;11.40;;;28.40;58.20;;;;;;10451199;28;20048;-37
2022/08/16 13:21:40;;;;;;;11.90;6.72;;;28.10;59.60;;;;;;10424727;28;20382;-35
2022/08/16 13:26:43;;;;;;;26.33;11.38;;;28.30;59.10;;;;;;10445124;28;20049;-35
2022/08/16 13:31:46;;;;;;;22.05;8.57;;;28.40;59.50;;;;;;10432612;28;20080;-35
2022/08/16 13:36:48;;;;;;;15.68;9.68;;;28.40;59.90;;;;;;10437870;28;20144;-34
2022/08/16 13:41:50;;;;;;;14.85;10.48;;;29.10;57.70;;;;;;10439828;28;20087;-35
2022/08/16 13:46:55;;;;;;;11.40;6.45;;;28.70;57.20;;;;;;10425432;28;20458;-36
2022/08/16 13:51:57;;;;;;;7.25;4.53;;;28.80;57.30;;;;;;10439231;28;20142;-34
2022/08/16 13:57:00;;;;;;;13.43;7.93;;;28.80;56.80;;;;;;10437042;28;20132;-35
2022/08/16 14:02:07;;;;;;;10.85;7.30;;;28.70;54.20;;;;;;10440694;28;20056;-34
2022/08/16 14:07:12;;;;;;;12.77;9.15;;;28.50;56.10;;;;;;10439585;28;20124;-37
2022/08/16 14:12:20;;;;;;;10.73;6.55;;;27.20;57.20;;;;;;10440989;28;20770;-36
2022/08/16 14:17:24;;;;;;;15.57;6.63;;;28.40;55.60;;;;;;10436684;28;20147;-33
2022/08/16 14:22:29;;;;;;;7.00;5.72;;;28.90;54.10;;;;;;10440955;28;20071;-34
2022/08/16 14:27:31;;;;;;;9.45;5.18;;;28.20;54.30;;;;;;10452560;28;20103;-35
2022/08/16 14:32:34;;;;;;;4.93;3.92;;;27.90;53.40;;;;;;10459266;28;20160;-34
2022/08/16 14:37:37;;;;;;;4.28;3.15;;;28.80;55.50;;;;;;10455280;28;20556;-35
2022/08/16 14:42:39;;;;;;;4.90;3.58;;;29.90;53.80;;;;;;10459688;28;20413;-35
2022/08/16 14:47:42;;;;;;;5.07;3.30;;;30.40;51.60;;;;;;10435525;28;20061;-36
2022/08/16 14:52:47;;;;;;;5.35;3.10;;;30.20;52.30;;;;;;10430310;28;20077;-35
2022/08/16 14:57:49;;;;;;;10.38;4.20;;;29.70;51.60;;;;;;10429657;28;20103;-30
2022/08/16 15:02:54;;;;;;;4.15;2.67;;;30.20;48.60;;;;;;10425022;28;20735;-35
2022/08/16 15:07:56;;;;;;;9.57;4.75;;;30.80;51.00;;;;;;10434392;28;20037;-35
2022/08/16 15:12:59;;;;;;;7.28;4.13;;;30.40;50.60;;;;;;10439577;28;20100;-36
2022/08/16 15:18:03;;;;;;;4.30;3.08;;;30.50;50.90;;;;;;10458120;28;20084;-36
2022/08/16 15:23:08;;;;;;;12.10;7.72;;;30.90;50.50;;;;;;10449334;28;20060;-36
2022/08/16 15:28:15;;;;;;;4.18;2.63;;;31.10;50.30;;;;;;10443826;28;20064;-35
2022/08/16 15:33:22;;;;;;;8.13;5.70;;;31.00;50.40;;;;;;10444344;28;20554;-35
2022/08/16 15:38:23;;;;;;;3.95;3.05;;;31.50;50.00;;;;;;10443647;28;20098;-35
2022/08/16 15:43:25;;;;;;;3.35;2.70;;;31.50;50.00;;;;;;10444475;28;20132;-34
2022/08/16 15:48:29;;;;;;;8.18;4.88;;;31.70;49.60;;;;;;10438025;28;20114;-35
2022/08/16 15:53:31;;;;;;;4.30;3.38;;;31.70;50.10;;;;;;10444341;28;20128;-35
2022/08/16 15:58:33;;;;;;;9.50;6.15;;;31.70;50.60;;;;;;10439058;28;20076;-35
2022/08/16 16:03:36;;;;;;;5.80;2.83;;;31.50;49.70;;;;;;10441766;28;20053;-35
2022/08/16 16:08:38;;;;;;;3.83;2.67;;;31.10;51.60;;;;;;10440024;28;20049;-35
2022/08/16 16:13:41;;;;;;;10.43;6.32;;;31.40;50.70;;;;;;10435106;28;20069;-35
2022/08/16 16:18:44;;;;;;;5.72;3.47;;;31.80;50.40;;;;;;10445365;28;20145;-35
2022/08/16 16:23:48;;;;;;;4.88;2.95;;;31.50;50.50;;;;;;10427940;28;20049;-35
2022/08/16 16:28:50;;;;;;;7.60;3.75;;;31.90;49.90;;;;;;10445191;28;20104;-36
2022/08/16 16:33:56;;;;;;;7.57;4.82;;;31.80;49.50;;;;;;10444197;28;20061;-35
2022/08/16 16:38:59;;;;;;;10.88;7.05;;;31.90;49.80;;;;;;10443291;28;20051;-36
2022/08/16 16:44:02;;;;;;;13.40;9.88;;;31.90;49.50;;;;;;10430272;28;20641;-35
2022/08/16 16:49:07;;;;;;;17.17;11.98;;;31.90;49.40;;;;;;10438135;28;20045;-41
2022/08/16 16:54:09;;;;;;;14.07;10.32;;;32.00;50.20;;;;;;10441081;28;20460;-36
2022/08/16 16:59:11;;;;;;;16.88;12.02;;;31.60;49.70;;;;;;10438974;28;20135;-35
2022/08/16 17:04:16;;;;;;;15.13;10.48;;;31.80;49.30;;;;;;10444124;28;20199;-36
2022/08/16 17:09:18;;;;;;;12.15;6.55;;;31.80;49.40;;;;;;10434976;28;20115;-36
2022/08/16 17:14:20;;;;;;;11.57;7.72;;;31.80;49.30;;;;;;10437361;28;20083;-35
2022/08/16 17:19:23;;;;;;;15.27;8.35;;;31.80;49.40;;;;;;10435972;28;20407;-36
2022/08/16 17:24:25;;;;;;;16.60;9.70;;;31.80;49.50;;;;;;10448080;28;20076;-35
2022/08/16 17:29:27;;;;;;;11.82;9.20;;;31.80;49.50;;;;;;10441732;28;20132;-34
2022/08/16 17:34:30;;;;;;;12.23;7.80;;;31.80;49.70;;;;;;10431335;28;20075;-34
2022/08/16 17:39:34;;;;;;;9.63;7.22;;;31.60;50.50;;;;;;10438141;28;20072;-35
2022/08/16 17:44:36;;;;;;;8.90;6.55;;;31.70;49.70;;;;;;10438713;28;20049;-36
2022/08/16 17:49:39;;;;;;;8.13;5.50;;;31.80;49.60;;;;;;10436035;28;20501;-34
2022/08/16 17:54:41;;;;;;;8.90;5.57;;;31.80;49.60;;;;;;10451153;28;20563;-36
2022/08/16 17:59:43;;;;;;;5.97;4.65;;;31.60;49.90;;;;;;10447133;28;20113;-34
2022/08/16 18:04:46;;;;;;;5.63;4.50;;;31.80;49.80;;;;;;10436967;28;20099;-36
2022/08/16 18:09:48;;;;;;;5.03;3.78;;;31.70;49.80;;;;;;10451957;28;20048;-33
2022/08/16 18:14:50;;;;;;;4.00;3.53;;;31.70;49.80;;;;;;10438147;28;20049;-36
2022/08/16 18:19:53;;;;;;;6.57;3.45;;;31.70;49.90;;;;;;10442389;28;20099;-36
2022/08/16 18:24:55;;;;;;;7.25;4.43;;;31.60;50.00;;;;;;10444815;28;20713;-35
2022/08/16 18:29:57;;;;;;;5.95;3.13;;;31.70;50.00;;;;;;10449680;28;20124;-36
2022/08/16 18:35:00;;;;;;;4.05;3.22;;;31.60;49.90;;;;;;10445549;28;20132;-34
2022/08/16 18:40:03;;;;;;;5.63;3.33;;;31.60;49.90;;;;;;10426606;28;20114;-36
2022/08/16 18:45:06;;;;;;;4.32;3.40;;;31.60;49.90;;;;;;10450184;28;20103;-36
2022/08/16 18:50:09;;;;;;;9.30;3.38;;;31.60;50.00;;;;;;10441957;28;20050;-36
2022/08/16 18:55:11;;;;;;;4.53;3.33;;;31.60;50.10;;;;;;10433314;28;20132;-33
2022/08/16 19:00:14;;;;;;;4.38;3.17;;;31.50;50.10;;;;;;10443065;28;21527;-37
2022/08/16 19:05:23;;;;;;;5.55;3.78;;;31.50;50.10;;;;;;10455335;28;20056;-36
2022/08/16 19:10:25;;;;;;;5.32;3.30;;;31.50;50.10;;;;;;10433673;28;20487;-36
2022/08/16 19:15:28;;;;;;;4.03;2.97;;;31.50;50.10;;;;;;10438227;28;20055;-36
2022/08/16 19:20:32;;;;;;;3.22;2.92;;;31.50;50.10;;;;;;10443277;28;20136;-35
2022/08/16 19:25:37;;;;;;;5.72;2.95;;;31.40;50.10;;;;;;10441525;28;20077;-35
2022/08/16 19:30:39;;;;;;;4.93;3.15;;;31.40;50.20;;;;;;10448850;28;20600;-36
2022/08/16 19:35:42;;;;;;;4.97;3.33;;;31.30;50.30;;;;;;10448034;28;20053;-33
2022/08/16 19:40:44;;;;;;;7.90;4.13;;;31.30;50.40;;;;;;10446397;28;20080;-36
2022/08/16 19:45:46;;;;;;;6.00;3.40;;;31.30;50.60;;;;;;10441772;28;20123;-36
2022/08/16 19:50:50;;;;;;;8.00;3.70;;;31.30;50.70;;;;;;10437353;28;20860;-36
2022/08/16 19:55:52;;;;;;;11.20;3.80;;;31.30;50.80;;;;;;10441908;28;20091;-35
2022/08/16 20:00:53;;;;;;;9.68;3.63;;;31.20;50.90;;;;;;10444591;28;20080;-34
2022/08/16 20:05:58;;;;;;;7.22;4.00;;;31.20;51.00;;;;;;10442457;28;20470;-36
2022/08/16 20:11:00;;;;;;;8.18;4.03;;;31.20;51.10;;;;;;10442081;28;20049;-36
2022/08/16 20:16:02;;;;;;;7.78;3.40;;;31.20;51.10;;;;;;10441709;28;20130;-36
2022/08/16 20:21:06;;;;;;;10.48;3.42;;;31.10;51.20;;;;;;10435488;28;20073;-36
2022/08/16 20:26:07;;;;;;;6.85;3.53;;;31.10;51.20;;;;;;10434000;28;20904;-34
2022/08/16 20:31:10;;;;;;;5.55;3.63;;;31.10;51.30;;;;;;10440370;28;20462;-35
2022/08/16 20:36:13;;;;;;;4.32;3.80;;;31.10;51.40;;;;;;10434282;28;20052;-36
2022/08/16 20:41:15;;;;;;;4.82;3.80;;;31.10;51.40;;;;;;10433623;28;20049;-35
2022/08/16 20:46:17;;;;;;;5.40;3.80;;;31.00;51.50;;;;;;10440236;28;20556;-35
2022/08/16 20:51:21;;;;;;;6.90;3.70;;;31.00;51.50;;;;;;10435652;28;20445;-37
2022/08/16 20:56:22;;;;;;;6.90;3.90;;;31.00;51.50;;;;;;10426965;28;20068;-35
2022/08/16 21:01:24;;;;;;;3.80;3.10;;;31.00;51.50;;;;;;10447466;28;20523;-36
2022/08/16 21:06:28;;;;;;;4.13;3.20;;;31.00;51.50;;;;;;10440082;28;20053;-36
2022/08/16 21:11:30;;;;;;;9.35;3.40;;;31.00;51.50;;;;;;10446843;28;20542;-36
2022/08/16 21:16:31;;;;;;;7.40;3.42;;;30.90;51.40;;;;;;10447969;28;20060;-36
2022/08/16 21:21:35;;;;;;;4.43;3.13;;;30.90;51.40;;;;;;10438311;28;20045;-37
2022/08/16 21:26:36;;;;;;;3.90;2.72;;;30.90;51.40;;;;;;10452022;28;20461;-35
2022/08/16 21:31:39;;;;;;;5.38;4.05;;;30.90;51.50;;;;;;10446928;28;20049;-38
2022/08/16 21:36:43;;;;;;;6.03;3.38;;;30.90;51.60;;;;;;10443866;28;20055;-36
2022/08/16 21:41:44;;;;;;;8.70;3.60;;;30.80;51.50;;;;;;10436298;28;20088;-35
2022/08/16 21:46:46;;;;;;;4.07;2.72;;;30.80;51.50;;;;;;10420689;28;20052;-36
2022/08/16 21:51:50;;;;;;;3.67;3.15;;;30.80;51.60;;;;;;10434195;28;20114;-37
2022/08/16 21:56:51;;;;;;;5.82;3.60;;;30.70;51.50;;;;;;10432684;28;20110;-36
2022/08/16 22:01:53;;;;;;;3.25;2.80;;;30.80;51.70;;;;;;10436337;28;20525;-33
2022/08/16 22:06:56;;;;;;;4.22;3.40;;;30.70;51.60;;;;;;10432010;28;20164;-36
2022/08/16 22:11:58;;;;;;;5.47;3.40;;;30.70;51.60;;;;;;10441235;28;20087;-36
2022/08/16 22:17:00;;;;;;;4.07;3.17;;;30.70;51.70;;;;;;10432544;28;20530;-35
2022/08/16 22:22:04;;;;;;;4.13;2.95;;;30.60;51.70;;;;;;10429055;28;20065;-34
2022/08/16 22:27:06;;;;;;;4.25;3.33;;;30.60;51.70;;;;;;10442982;28;20047;-36
2022/08/16 22:32:08;;;;;;;3.53;3.00;;;30.60;51.70;;;;;;10457936;28;20076;-35
2022/08/16 22:37:11;;;;;;;3.25;2.95;;;30.60;51.80;;;;;;10440295;28;20049;-35
2022/08/16 22:42:13;;;;;;;4.50;3.25;;;30.50;51.80;;;;;;10442656;28;20140;-35
2022/08/16 22:47:14;;;;;;;3.67;3.10;;;30.50;51.80;;;;;;10434467;28;20126;-34
2022/08/16 22:52:18;;;;;;;4.45;3.45;;;30.50;51.90;;;;;;10444949;28;20081;-36
2022/08/16 22:57:19;;;;;;;5.53;3.65;;;30.50;51.90;;;;;;10438726;28;20099;-34
2022/08/16 23:02:21;;;;;;;3.13;2.47;;;30.40;51.80;;;;;;10422918;28;20753;-34
2022/08/16 23:07:25;;;;;;;2.63;2.42;;;30.40;51.90;;;;;;10433054;28;20141;-35
2022/08/16 23:12:26;;;;;;;3.22;2.92;;;30.40;51.90;;;;;;10443733;28;20060;-35
2022/08/16 23:17:28;;;;;;;4.85;3.25;;;30.30;51.80;;;;;;10436469;28;20077;-36
2022/08/16 23:22:41;;;;;;;3.28;2.97;;;30.30;51.90;;;;;;10433652;28;20049;-36
2022/08/16 23:27:43;;;;;;;3.35;3.03;;;30.30;51.90;;;;;;10437338;28;20470;-33
2022/08/16 23:32:46;;;;;;;3.72;2.80;;;30.30;51.90;;;;;;10448921;28;20076;-36
2022/08/16 23:37:50;;;;;;;4.82;3.33;;;30.30;52.00;;;;;;10445765;28;20482;-35
2022/08/16 23:42:54;;;;;;;3.88;2.80;;;30.20;51.90;;;;;;10452007;28;20392;-35
2022/08/16 23:47:56;;;;;;;3.72;3.00;;;30.20;51.90;;;;;;10443220;28;20048;-35
2022/08/16 23:53:04;;;;;;;3.05;2.72;;;30.20;52.00;;;;;;10450531;28;20136;-35
2022/08/16 23:58:06;;;;;;;3.70;2.85;;;30.20;52.00;;;;;;10448141;28;20096;-36
